sensor_id;sensor_type;location;lat;lon;timestamp;temperature;humidity
7388;DHT22;3735;50.136;11.062;2022-07-06T00:01:10;18.50;99.90
7388;DHT22;3735;50.136;11.062;2022-07-06T00:03:35;18.50;99.90
7388;DHT22;3735;50.136;11.062;2022-07-06T00:06:01;18.60;99.90
7388;DHT22;3735;50.136;11.062;2022-07-06T00:08:27;18.60;99.90
7388;DHT22;3735;50.136;11.062;2022-07-06T00:10:53;18.60;99.90
7388;DHT22;3735;50.136;11.062;2022-07-06T00:13:19;18.60;99.90
7388;DHT22;3735;50.136;11.062;2022-07-06T00:15:44;18.60;99.90
7388;DHT22;3735;50.136;11.062;2022-07-06T00:18:10;18.60;99.90
7388;DHT22;3735;50.136;11.062;2022-07-06T00:20:36;18.60;99.90
7388;DHT22;3735;50.136;11.062;2022-07-06T00:23:01;18.60;99.90
7388;DHT22;3735;50.136;11.062;2022-07-06T00:25:27;18.60;99.90
7388;DHT22;3735;50.136;11.062;2022-07-06T00:27:53;18.60;99.90
7388;DHT22;3735;50.136;11.062;2022-07-06T00:30:19;18.50;99.90
7388;DHT22;3735;50.136;11.062;2022-07-06T00:32:44;18.50;99.90
7388;DHT22;3735;50.136;11.062;2022-07-06T00:35:10;18.50;99.90
7388;DHT22;3735;50.136;11.062;2022-07-06T00:37:36;18.20;99.90
7388;DHT22;3735;50.136;11.062;2022-07-06T00:51:04;16.80;99.90
7388;DHT22;3735;50.136;11.062;2022-07-06T00:53:30;16.60;99.90
7388;DHT22;3735;50.136;11.062;2022-07-06T00:55:56;16.60;99.90
7388;DHT22;3735;50.136;11.062;2022-07-06T00:58:22;16.50;99.90
7388;DHT22;3735;50.136;11.062;2022-07-06T01:00:48;16.50;99.90
7388;DHT22;3735;50.136;11.062;2022-07-06T01:03:13;16.60;99.90
7388;DHT22;3735;50.136;11.062;2022-07-06T01:05:39;16.60;99.90
7388;DHT22;3735;50.136;11.062;2022-07-06T01:08:05;16.70;99.90
7388;DHT22;3735;50.136;11.062;2022-07-06T01:10:31;16.80;99.90
7388;DHT22;3735;50.136;11.062;2022-07-06T01:12:57;16.90;99.90
7388;DHT22;3735;50.136;11.062;2022-07-06T01:15:25;17.10;99.90
7388;DHT22;3735;50.136;11.062;2022-07-06T01:21:31;17.30;99.90
7388;DHT22;3735;50.136;11.062;2022-07-06T01:23:57;17.00;99.90
7388;DHT22;3735;50.136;11.062;2022-07-06T01:26:23;16.70;99.90
7388;DHT22;3735;50.136;11.062;2022-07-06T01:28:51;16.40;99.90
7388;DHT22;3735;50.136;11.062;2022-07-06T01:31:26;16.00;99.90
7388;DHT22;3735;50.136;11.062;2022-07-06T01:33:54;15.70;99.90
7388;DHT22;3735;50.136;11.062;2022-07-06T01:36:21;15.50;99.90
7388;DHT22;3735;50.136;11.062;2022-07-06T01:38:52;15.20;99.90
7388;DHT22;3735;50.136;11.062;2022-07-06T01:41:20;15.00;99.90
7388;DHT22;3735;50.136;11.062;2022-07-06T01:43:47;14.80;99.90
7388;DHT22;3735;50.136;11.062;2022-07-06T01:46:13;14.70;99.90
7388;DHT22;3735;50.136;11.062;2022-07-06T01:48:40;14.50;99.90
7388;DHT22;3735;50.136;11.062;2022-07-06T01:51:06;14.50;99.90
7388;DHT22;3735;50.136;11.062;2022-07-06T01:53:32;14.40;99.90
7388;DHT22;3735;50.136;11.062;2022-07-06T01:55:58;14.40;99.90
7388;DHT22;3735;50.136;11.062;2022-07-06T01:58:23;14.40;99.90
7388;DHT22;3735;50.136;11.062;2022-07-06T02:00:50;14.40;99.90
7388;DHT22;3735;50.136;11.062;2022-07-06T02:03:15;14.50;99.90
7388;DHT22;3735;50.136;11.062;2022-07-06T02:05:41;14.50;99.90
7388;DHT22;3735;50.136;11.062;2022-07-06T02:08:07;14.50;99.90
7388;DHT22;3735;50.136;11.062;2022-07-06T02:10:33;14.50;99.90
7388;DHT22;3735;50.136;11.062;2022-07-06T02:12:58;14.50;99.90
7388;DHT22;3735;50.136;11.062;2022-07-06T02:15:24;14.50;99.90
7388;DHT22;3735;50.136;11.062;2022-07-06T02:17:50;14.40;99.90
7388;DHT22;3735;50.136;11.062;2022-07-06T02:20:16;14.40;99.90
7388;DHT22;3735;50.136;11.062;2022-07-06T02:22:41;14.30;99.90
7388;DHT22;3735;50.136;11.062;2022-07-06T02:25:07;14.30;99.90
7388;DHT22;3735;50.136;11.062;2022-07-06T02:27:33;14.30;99.90
7388;DHT22;3735;50.136;11.062;2022-07-06T02:29:59;14.20;99.90
7388;DHT22;3735;50.136;11.062;2022-07-06T02:32:25;14.20;99.90
7388;DHT22;3735;50.136;11.062;2022-07-06T02:34:51;14.10;99.90
7388;DHT22;3735;50.136;11.062;2022-07-06T02:37:18;14.00;99.90
7388;DHT22;3735;50.136;11.062;2022-07-06T02:39:44;13.90;99.90
7388;DHT22;3735;50.136;11.062;2022-07-06T02:42:09;13.80;99.90
7388;DHT22;3735;50.136;11.062;2022-07-06T02:44:35;13.80;99.90
7388;DHT22;3735;50.136;11.062;2022-07-06T02:47:01;13.70;99.90
7388;DHT22;3735;50.136;11.062;2022-07-06T02:49:27;13.60;99.90
7388;DHT22;3735;50.136;11.062;2022-07-06T02:51:52;13.60;99.90
7388;DHT22;3735;50.136;11.062;2022-07-06T02:54:18;13.50;99.90
7388;DHT22;3735;50.136;11.062;2022-07-06T02:56:44;13.50;99.90
7388;DHT22;3735;50.136;11.062;2022-07-06T02:59:13;13.40;99.90
7388;DHT22;3735;50.136;11.062;2022-07-06T03:01:39;13.40;99.90
7388;DHT22;3735;50.136;11.062;2022-07-06T03:04:04;13.30;99.90
7388;DHT22;3735;50.136;11.062;2022-07-06T03:06:31;13.20;99.90
7388;DHT22;3735;50.136;11.062;2022-07-06T03:08:56;13.20;99.90
7388;DHT22;3735;50.136;11.062;2022-07-06T03:11:22;13.10;99.90
7388;DHT22;3735;50.136;11.062;2022-07-06T03:13:48;13.10;99.90
7388;DHT22;3735;50.136;11.062;2022-07-06T03:16:13;13.00;99.90
7388;DHT22;3735;50.136;11.062;2022-07-06T03:18:39;13.00;99.90
7388;DHT22;3735;50.136;11.062;2022-07-06T03:21:05;13.00;99.90
7388;DHT22;3735;50.136;11.062;2022-07-06T03:23:31;13.00;99.90
7388;DHT22;3735;50.136;11.062;2022-07-06T03:25:56;12.90;99.90
7388;DHT22;3735;50.136;11.062;2022-07-06T03:28:22;12.80;99.90
7388;DHT22;3735;50.136;11.062;2022-07-06T03:30:48;13.00;99.90
7388;DHT22;3735;50.136;11.062;2022-07-06T03:33:14;12.90;99.90
7388;DHT22;3735;50.136;11.062;2022-07-06T03:35:39;13.00;99.90
7388;DHT22;3735;50.136;11.062;2022-07-06T03:38:05;13.00;99.90
7388;DHT22;3735;50.136;11.062;2022-07-06T03:40:31;13.00;99.90
7388;DHT22;3735;50.136;11.062;2022-07-06T03:42:56;13.10;99.90
7388;DHT22;3735;50.136;11.062;2022-07-06T03:45:22;13.10;99.90
7388;DHT22;3735;50.136;11.062;2022-07-06T03:47:48;13.20;99.90
7388;DHT22;3735;50.136;11.062;2022-07-06T03:50:14;13.30;99.90
7388;DHT22;3735;50.136;11.062;2022-07-06T03:52:40;13.30;99.90
7388;DHT22;3735;50.136;11.062;2022-07-06T03:55:10;13.50;99.90
7388;DHT22;3735;50.136;11.062;2022-07-06T03:57:38;13.60;99.90
7388;DHT22;3735;50.136;11.062;2022-07-06T04:00:06;13.80;99.90
7388;DHT22;3735;50.136;11.062;2022-07-06T04:02:33;13.90;99.90
7388;DHT22;3735;50.136;11.062;2022-07-06T04:04:59;14.00;99.90
7388;DHT22;3735;50.136;11.062;2022-07-06T04:07:25;14.20;99.90
7388;DHT22;3735;50.136;11.062;2022-07-06T04:09:51;14.40;99.90
7388;DHT22;3735;50.136;11.062;2022-07-06T04:12:17;14.60;99.90
7388;DHT22;3735;50.136;11.062;2022-07-06T04:14:43;14.80;99.90
7388;DHT22;3735;50.136;11.062;2022-07-06T04:17:09;15.00;99.90
7388;DHT22;3735;50.136;11.062;2022-07-06T04:19:53;15.20;99.90
7388;DHT22;3735;50.136;11.062;2022-07-06T04:22:19;15.30;99.90
7388;DHT22;3735;50.136;11.062;2022-07-06T04:24:44;15.50;99.90
7388;DHT22;3735;50.136;11.062;2022-07-06T04:27:10;15.60;99.90
7388;DHT22;3735;50.136;11.062;2022-07-06T04:29:36;15.70;99.90
7388;DHT22;3735;50.136;11.062;2022-07-06T04:32:02;16.00;99.90
7388;DHT22;3735;50.136;11.062;2022-07-06T04:34:28;16.10;99.90
7388;DHT22;3735;50.136;11.062;2022-07-06T04:36:54;16.30;99.90
7388;DHT22;3735;50.136;11.062;2022-07-06T04:39:20;16.30;99.90
7388;DHT22;3735;50.136;11.062;2022-07-06T04:41:46;16.30;99.90
7388;DHT22;3735;50.136;11.062;2022-07-06T04:44:11;16.30;99.90
7388;DHT22;3735;50.136;11.062;2022-07-06T04:46:37;16.30;99.90
7388;DHT22;3735;50.136;11.062;2022-07-06T04:49:03;16.30;99.90
7388;DHT22;3735;50.136;11.062;2022-07-06T04:51:28;16.40;99.90
7388;DHT22;3735;50.136;11.062;2022-07-06T04:53:54;16.50;99.90
7388;DHT22;3735;50.136;11.062;2022-07-06T04:56:20;16.80;99.90
7388;DHT22;3735;50.136;11.062;2022-07-06T04:58:45;16.90;99.90
7388;DHT22;3735;50.136;11.062;2022-07-06T05:01:11;17.00;99.90
7388;DHT22;3735;50.136;11.062;2022-07-06T05:03:37;17.20;99.90
7388;DHT22;3735;50.136;11.062;2022-07-06T05:06:06;17.40;99.90
7388;DHT22;3735;50.136;11.062;2022-07-06T05:08:33;17.50;99.90
7388;DHT22;3735;50.136;11.062;2022-07-06T05:10:59;17.70;99.90
7388;DHT22;3735;50.136;11.062;2022-07-06T05:13:26;17.80;99.90
7388;DHT22;3735;50.136;11.062;2022-07-06T05:15:51;18.00;99.90
7388;DHT22;3735;50.136;11.062;2022-07-06T05:18:17;18.10;99.90
7388;DHT22;3735;50.136;11.062;2022-07-06T05:20:43;18.20;99.90
7388;DHT22;3735;50.136;11.062;2022-07-06T05:23:09;18.30;99.90
7388;DHT22;3735;50.136;11.062;2022-07-06T05:25:35;18.40;99.90
7388;DHT22;3735;50.136;11.062;2022-07-06T05:28:02;18.50;99.90
7388;DHT22;3735;50.136;11.062;2022-07-06T05:30:28;18.60;99.90
7388;DHT22;3735;50.136;11.062;2022-07-06T05:32:54;18.70;99.90
7388;DHT22;3735;50.136;11.062;2022-07-06T05:35:21;18.70;99.90
7388;DHT22;3735;50.136;11.062;2022-07-06T05:37:46;18.70;99.90
7388;DHT22;3735;50.136;11.062;2022-07-06T05:40:12;18.70;99.90
7388;DHT22;3735;50.136;11.062;2022-07-06T05:42:38;18.70;99.90
7388;DHT22;3735;50.136;11.062;2022-07-06T05:45:05;18.70;99.90
7388;DHT22;3735;50.136;11.062;2022-07-06T05:47:32;18.90;99.90
7388;DHT22;3735;50.136;11.062;2022-07-06T05:50:16;19.10;99.90
7388;DHT22;3735;50.136;11.062;2022-07-06T05:52:44;19.50;99.90
7388;DHT22;3735;50.136;11.062;2022-07-06T05:55:20;20.20;99.90
7388;DHT22;3735;50.136;11.062;2022-07-06T05:57:46;21.10;99.90
7388;DHT22;3735;50.136;11.062;2022-07-06T06:00:12;21.50;99.90
7388;DHT22;3735;50.136;11.062;2022-07-06T06:02:42;22.10;99.90
7388;DHT22;3735;50.136;11.062;2022-07-06T06:05:09;22.30;99.90
7388;DHT22;3735;50.136;11.062;2022-07-06T06:07:37;22.50;99.90
7388;DHT22;3735;50.136;11.062;2022-07-06T06:10:05;23.10;99.90
7388;DHT22;3735;50.136;11.062;2022-07-06T06:12:33;23.40;99.90
7388;DHT22;3735;50.136;11.062;2022-07-06T06:14:59;23.40;99.90
7388;DHT22;3735;50.136;11.062;2022-07-06T06:17:25;23.20;99.90
7388;DHT22;3735;50.136;11.062;2022-07-06T06:19:51;23.10;99.90
7388;DHT22;3735;50.136;11.062;2022-07-06T06:22:17;23.00;99.90
7388;DHT22;3735;50.136;11.062;2022-07-06T06:24:42;22.80;99.90
7388;DHT22;3735;50.136;11.062;2022-07-06T06:27:08;22.60;99.90
7388;DHT22;3735;50.136;11.062;2022-07-06T06:29:34;22.70;99.90
7388;DHT22;3735;50.136;11.062;2022-07-06T06:32:00;22.80;99.90
7388;DHT22;3735;50.136;11.062;2022-07-06T06:34:25;22.90;99.90
7388;DHT22;3735;50.136;11.062;2022-07-06T06:36:51;22.80;99.90
7388;DHT22;3735;50.136;11.062;2022-07-06T06:39:17;22.70;99.90
7388;DHT22;3735;50.136;11.062;2022-07-06T06:41:42;22.70;99.90
7388;DHT22;3735;50.136;11.062;2022-07-06T06:44:08;22.70;99.90
7388;DHT22;3735;50.136;11.062;2022-07-06T06:46:34;22.70;99.90
7388;DHT22;3735;50.136;11.062;2022-07-06T06:49:00;22.70;99.90
7388;DHT22;3735;50.136;11.062;2022-07-06T06:51:27;22.80;99.90
7388;DHT22;3735;50.136;11.062;2022-07-06T06:53:53;23.80;99.90
7388;DHT22;3735;50.136;11.062;2022-07-06T06:56:18;25.00;99.90
7388;DHT22;3735;50.136;11.062;2022-07-06T06:58:44;26.00;99.90
7388;DHT22;3735;50.136;11.062;2022-07-06T07:01:10;25.90;99.90
7388;DHT22;3735;50.136;11.062;2022-07-06T07:03:36;26.00;99.90
7388;DHT22;3735;50.136;11.062;2022-07-06T07:06:01;26.40;99.90
7388;DHT22;3735;50.136;11.062;2022-07-06T07:08:27;27.10;99.90
7388;DHT22;3735;50.136;11.062;2022-07-06T07:10:53;27.50;99.90
7388;DHT22;3735;50.136;11.062;2022-07-06T07:13:19;26.90;99.90
7388;DHT22;3735;50.136;11.062;2022-07-06T07:15:44;26.90;99.90
7388;DHT22;3735;50.136;11.062;2022-07-06T07:18:10;27.30;99.90
7388;DHT22;3735;50.136;11.062;2022-07-06T07:20:36;27.40;95.80
7388;DHT22;3735;50.136;11.062;2022-07-06T07:23:02;27.60;96.90
7388;DHT22;3735;50.136;11.062;2022-07-06T07:25:28;28.20;94.30
7388;DHT22;3735;50.136;11.062;2022-07-06T07:27:54;28.90;86.70
7388;DHT22;3735;50.136;11.062;2022-07-06T07:30:20;29.60;78.70
7388;DHT22;3735;50.136;11.062;2022-07-06T07:32:46;30.20;68.00
7388;DHT22;3735;50.136;11.062;2022-07-06T07:35:12;30.50;62.00
7388;DHT22;3735;50.136;11.062;2022-07-06T07:37:38;31.00;64.00
7388;DHT22;3735;50.136;11.062;2022-07-06T07:40:04;30.90;57.60
7388;DHT22;3735;50.136;11.062;2022-07-06T07:42:31;30.00;58.90
7388;DHT22;3735;50.136;11.062;2022-07-06T07:44:57;29.30;73.30
7388;DHT22;3735;50.136;11.062;2022-07-06T07:47:23;29.30;65.30
7388;DHT22;3735;50.136;11.062;2022-07-06T07:49:49;29.10;69.00
7388;DHT22;3735;50.136;11.062;2022-07-06T07:52:15;28.70;73.40
7388;DHT22;3735;50.136;11.062;2022-07-06T07:54:40;28.50;76.50
7388;DHT22;3735;50.136;11.062;2022-07-06T07:57:06;28.30;81.30
7388;DHT22;3735;50.136;11.062;2022-07-06T07:59:32;28.90;75.80
7388;DHT22;3735;50.136;11.062;2022-07-06T08:01:58;29.00;77.40
7388;DHT22;3735;50.136;11.062;2022-07-06T08:04:24;28.50;78.00
7388;DHT22;3735;50.136;11.062;2022-07-06T08:06:50;28.10;85.30
7388;DHT22;3735;50.136;11.062;2022-07-06T08:09:15;28.00;93.30
7388;DHT22;3735;50.136;11.062;2022-07-06T08:11:42;28.90;78.40
7388;DHT22;3735;50.136;11.062;2022-07-06T08:14:08;29.40;68.70
7388;DHT22;3735;50.136;11.062;2022-07-06T08:16:34;29.60;65.70
7388;DHT22;3735;50.136;11.062;2022-07-06T08:19:00;30.90;63.10
7388;DHT22;3735;50.136;11.062;2022-07-06T08:21:26;31.30;62.40
7388;DHT22;3735;50.136;11.062;2022-07-06T08:23:52;31.70;55.10
7388;DHT22;3735;50.136;11.062;2022-07-06T08:26:20;31.40;52.50
7388;DHT22;3735;50.136;11.062;2022-07-06T08:28:46;31.00;54.80
7388;DHT22;3735;50.136;11.062;2022-07-06T08:31:12;30.30;56.90
7388;DHT22;3735;50.136;11.062;2022-07-06T08:33:38;29.50;66.00
7388;DHT22;3735;50.136;11.062;2022-07-06T08:36:04;29.00;90.70
7388;DHT22;3735;50.136;11.062;2022-07-06T08:38:30;30.20;78.20
7388;DHT22;3735;50.136;11.062;2022-07-06T08:40:57;31.20;69.00
7388;DHT22;3735;50.136;11.062;2022-07-06T08:43:23;31.40;57.90
7388;DHT22;3735;50.136;11.062;2022-07-06T08:45:50;32.20;55.30
7388;DHT22;3735;50.136;11.062;2022-07-06T08:48:23;33.30;47.50
7388;DHT22;3735;50.136;11.062;2022-07-06T08:50:50;34.30;44.80
7388;DHT22;3735;50.136;11.062;2022-07-06T08:53:19;34.50;42.70
7388;DHT22;3735;50.136;11.062;2022-07-06T08:55:47;33.50;43.30
7388;DHT22;3735;50.136;11.062;2022-07-06T08:58:15;32.60;50.10
7388;DHT22;3735;50.136;11.062;2022-07-06T09:00:41;31.60;51.90
7388;DHT22;3735;50.136;11.062;2022-07-06T09:03:11;30.90;54.50
7388;DHT22;3735;50.136;11.062;2022-07-06T09:05:40;30.50;55.50
7388;DHT22;3735;50.136;11.062;2022-07-06T09:08:06;29.80;66.20
7388;DHT22;3735;50.136;11.062;2022-07-06T09:10:31;29.20;76.00
7388;DHT22;3735;50.136;11.062;2022-07-06T09:13:08;28.90;79.20
7388;DHT22;3735;50.136;11.062;2022-07-06T09:15:35;29.40;87.00
7388;DHT22;3735;50.136;11.062;2022-07-06T09:18:04;31.20;61.20
7388;DHT22;3735;50.136;11.062;2022-07-06T09:20:30;32.60;55.30
7388;DHT22;3735;50.136;11.062;2022-07-06T09:23:03;32.90;51.20
7388;DHT22;3735;50.136;11.062;2022-07-06T09:25:31;32.90;47.40
7388;DHT22;3735;50.136;11.062;2022-07-06T09:27:58;33.70;48.30
7388;DHT22;3735;50.136;11.062;2022-07-06T09:30:26;34.30;44.60
7388;DHT22;3735;50.136;11.062;2022-07-06T09:32:54;34.30;42.00
7388;DHT22;3735;50.136;11.062;2022-07-06T09:40:42;30.40;61.80
7388;DHT22;3735;50.136;11.062;2022-07-06T09:43:21;31.20;58.60
7388;DHT22;3735;50.136;11.062;2022-07-06T09:45:56;31.60;52.90
7388;DHT22;3735;50.136;11.062;2022-07-06T09:48:25;31.80;55.80
7388;DHT22;3735;50.136;11.062;2022-07-06T09:50:57;31.60;54.20
7388;DHT22;3735;50.136;11.062;2022-07-06T09:53:26;31.60;52.20
7388;DHT22;3735;50.136;11.062;2022-07-06T09:55:54;31.40;54.60
7388;DHT22;3735;50.136;11.062;2022-07-06T09:58:21;32.20;51.00
7388;DHT22;3735;50.136;11.062;2022-07-06T10:00:48;33.10;46.80
7388;DHT22;3735;50.136;11.062;2022-07-06T10:03:16;32.40;45.70
7388;DHT22;3735;50.136;11.062;2022-07-06T10:05:44;30.60;48.90
7388;DHT22;3735;50.136;11.062;2022-07-06T10:08:13;29.10;59.10
7388;DHT22;3735;50.136;11.062;2022-07-06T10:10:41;27.80;81.40
7388;DHT22;3735;50.136;11.062;2022-07-06T10:13:09;28.30;92.10
7388;DHT22;3735;50.136;11.062;2022-07-06T10:15:39;30.20;65.30
7388;DHT22;3735;50.136;11.062;2022-07-06T10:18:07;31.10;50.30
7388;DHT22;3735;50.136;11.062;2022-07-06T10:20:38;30.10;48.80
7388;DHT22;3735;50.136;11.062;2022-07-06T10:23:06;30.80;46.80
7388;DHT22;3735;50.136;11.062;2022-07-06T10:25:34;32.20;43.60
7388;DHT22;3735;50.136;11.062;2022-07-06T10:28:01;33.10;40.60
7388;DHT22;3735;50.136;11.062;2022-07-06T10:30:28;34.10;40.30
7388;DHT22;3735;50.136;11.062;2022-07-06T10:32:58;34.60;36.80
7388;DHT22;3735;50.136;11.062;2022-07-06T10:35:25;33.00;37.50
7388;DHT22;3735;50.136;11.062;2022-07-06T10:40:40;29.90;50.40
7388;DHT22;3735;50.136;11.062;2022-07-06T10:43:45;31.20;47.30
7388;DHT22;3735;50.136;11.062;2022-07-06T10:46:14;33.20;42.70
7388;DHT22;3735;50.136;11.062;2022-07-06T10:48:46;34.40;34.50
7388;DHT22;3735;50.136;11.062;2022-07-06T10:51:27;35.40;31.20
7388;DHT22;3735;50.136;11.062;2022-07-06T10:53:58;35.70;29.00
7388;DHT22;3735;50.136;11.062;2022-07-06T10:56:39;34.90;27.90
7388;DHT22;3735;50.136;11.062;2022-07-06T10:59:11;33.00;30.30
7388;DHT22;3735;50.136;11.062;2022-07-06T11:01:41;31.30;35.20
7388;DHT22;3735;50.136;11.062;2022-07-06T11:04:47;31.50;39.90
7388;DHT22;3735;50.136;11.062;2022-07-06T11:07:15;31.00;36.10
7388;DHT22;3735;50.136;11.062;2022-07-06T11:09:55;29.90;40.80
7388;DHT22;3735;50.136;11.062;2022-07-06T11:12:22;29.50;39.00
7388;DHT22;3735;50.136;11.062;2022-07-06T11:14:49;28.70;46.20
7388;DHT22;3735;50.136;11.062;2022-07-06T11:17:17;29.60;45.30
7388;DHT22;3735;50.136;11.062;2022-07-06T11:19:52;31.70;43.70
7388;DHT22;3735;50.136;11.062;2022-07-06T11:22:21;33.20;38.70
7388;DHT22;3735;50.136;11.062;2022-07-06T11:24:50;33.80;35.00
7388;DHT22;3735;50.136;11.062;2022-07-06T11:27:23;34.40;33.70
7388;DHT22;3735;50.136;11.062;2022-07-06T11:29:49;34.80;31.00
7388;DHT22;3735;50.136;11.062;2022-07-06T11:32:15;35.70;32.40
7388;DHT22;3735;50.136;11.062;2022-07-06T11:34:42;36.00;28.00
7388;DHT22;3735;50.136;11.062;2022-07-06T11:37:12;34.30;29.30
7388;DHT22;3735;50.136;11.062;2022-07-06T11:39:43;34.10;31.80
7388;DHT22;3735;50.136;11.062;2022-07-06T11:42:11;35.30;30.80
7388;DHT22;3735;50.136;11.062;2022-07-06T11:44:40;35.30;29.90
7388;DHT22;3735;50.136;11.062;2022-07-06T11:47:07;34.50;30.50
7388;DHT22;3735;50.136;11.062;2022-07-06T11:49:37;35.10;30.40
7388;DHT22;3735;50.136;11.062;2022-07-06T11:52:08;34.70;30.00
7388;DHT22;3735;50.136;11.062;2022-07-06T11:54:36;33.10;31.30
7388;DHT22;3735;50.136;11.062;2022-07-06T11:57:02;32.40;35.60
7388;DHT22;3735;50.136;11.062;2022-07-06T11:59:33;33.50;34.20
7388;DHT22;3735;50.136;11.062;2022-07-06T12:02:06;34.90;33.30
7388;DHT22;3735;50.136;11.062;2022-07-06T12:04:38;36.00;31.00
7388;DHT22;3735;50.136;11.062;2022-07-06T12:07:13;34.50;28.80
7388;DHT22;3735;50.136;11.062;2022-07-06T12:09:46;33.10;31.10
7388;DHT22;3735;50.136;11.062;2022-07-06T12:12:13;32.10;32.80
7388;DHT22;3735;50.136;11.062;2022-07-06T12:14:41;31.00;35.20
7388;DHT22;3735;50.136;11.062;2022-07-06T12:17:09;30.00;37.40
7388;DHT22;3735;50.136;11.062;2022-07-06T12:19:38;29.20;39.40
7388;DHT22;3735;50.136;11.062;2022-07-06T12:22:05;28.60;42.50
7388;DHT22;3735;50.136;11.062;2022-07-06T12:24:34;29.50;46.50
7388;DHT22;3735;50.136;11.062;2022-07-06T12:27:14;31.20;41.30
7388;DHT22;3735;50.136;11.062;2022-07-06T12:29:45;32.10;39.10
7388;DHT22;3735;50.136;11.062;2022-07-06T12:32:19;33.30;38.80
7388;DHT22;3735;50.136;11.062;2022-07-06T12:35:01;34.10;35.50
7388;DHT22;3735;50.136;11.062;2022-07-06T12:37:34;34.90;31.90
7388;DHT22;3735;50.136;11.062;2022-07-06T12:40:00;35.10;30.50
7388;DHT22;3735;50.136;11.062;2022-07-06T12:42:26;34.30;31.00
7388;DHT22;3735;50.136;11.062;2022-07-06T12:44:53;32.70;31.90
7388;DHT22;3735;50.136;11.062;2022-07-06T12:47:24;32.20;37.40
7388;DHT22;3735;50.136;11.062;2022-07-06T12:50:09;31.70;35.70
7388;DHT22;3735;50.136;11.062;2022-07-06T12:52:37;30.20;38.60
7388;DHT22;3735;50.136;11.062;2022-07-06T12:55:05;29.10;43.70
7388;DHT22;3735;50.136;11.062;2022-07-06T12:57:51;29.30;50.50
7388;DHT22;3735;50.136;11.062;2022-07-06T13:00:17;29.70;47.60
7388;DHT22;3735;50.136;11.062;2022-07-06T13:02:45;31.10;44.80
7388;DHT22;3735;50.136;11.062;2022-07-06T13:05:15;32.40;40.00
7388;DHT22;3735;50.136;11.062;2022-07-06T13:07:48;33.50;37.20
7388;DHT22;3735;50.136;11.062;2022-07-06T13:10:15;32.90;34.40
7388;DHT22;3735;50.136;11.062;2022-07-06T13:12:42;31.40;36.30
7388;DHT22;3735;50.136;11.062;2022-07-06T13:15:09;30.60;39.10
7388;DHT22;3735;50.136;11.062;2022-07-06T13:17:35;29.60;40.80
7388;DHT22;3735;50.136;11.062;2022-07-06T13:20:06;30.00;46.20
7388;DHT22;3735;50.136;11.062;2022-07-06T13:22:33;31.60;39.60
7388;DHT22;3735;50.136;11.062;2022-07-06T13:24:59;32.40;37.20
7388;DHT22;3735;50.136;11.062;2022-07-06T13:27:25;33.10;35.80
7388;DHT22;3735;50.136;11.062;2022-07-06T13:29:51;33.70;33.50
7388;DHT22;3735;50.136;11.062;2022-07-06T13:32:18;33.90;31.50
7388;DHT22;3735;50.136;11.062;2022-07-06T13:34:44;32.70;30.10
7388;DHT22;3735;50.136;11.062;2022-07-06T13:37:09;30.90;32.00
7388;DHT22;3735;50.136;11.062;2022-07-06T13:39:35;30.40;37.90
7388;DHT22;3735;50.136;11.062;2022-07-06T13:42:04;31.70;40.70
7388;DHT22;3735;50.136;11.062;2022-07-06T13:44:31;33.20;36.50
7388;DHT22;3735;50.136;11.062;2022-07-06T13:46:57;33.90;30.50
7388;DHT22;3735;50.136;11.062;2022-07-06T13:49:23;34.40;30.30
7388;DHT22;3735;50.136;11.062;2022-07-06T13:51:51;35.10;28.90
7388;DHT22;3735;50.136;11.062;2022-07-06T13:54:16;35.40;28.20
7388;DHT22;3735;50.136;11.062;2022-07-06T13:56:45;35.30;28.30
7388;DHT22;3735;50.136;11.062;2022-07-06T13:59:14;35.00;28.00
7388;DHT22;3735;50.136;11.062;2022-07-06T14:01:41;33.70;28.00
7388;DHT22;3735;50.136;11.062;2022-07-06T14:04:07;32.80;29.30
7388;DHT22;3735;50.136;11.062;2022-07-06T14:06:32;32.40;30.00
7388;DHT22;3735;50.136;11.062;2022-07-06T14:09:00;33.20;30.20
7388;DHT22;3735;50.136;11.062;2022-07-06T14:11:26;33.90;29.20
7388;DHT22;3735;50.136;11.062;2022-07-06T14:13:52;33.80;29.30
7388;DHT22;3735;50.136;11.062;2022-07-06T14:16:18;34.00;28.80
7388;DHT22;3735;50.136;11.062;2022-07-06T14:18:44;33.90;28.80
7388;DHT22;3735;50.136;11.062;2022-07-06T14:21:10;34.10;28.30
7388;DHT22;3735;50.136;11.062;2022-07-06T14:23:36;34.40;27.00
7388;DHT22;3735;50.136;11.062;2022-07-06T14:26:02;34.20;26.80
7388;DHT22;3735;50.136;11.062;2022-07-06T14:28:28;34.30;25.70
7388;DHT22;3735;50.136;11.062;2022-07-06T14:30:54;33.90;26.20
7388;DHT22;3735;50.136;11.062;2022-07-06T14:33:19;33.70;27.00
7388;DHT22;3735;50.136;11.062;2022-07-06T14:35:48;33.70;25.80
7388;DHT22;3735;50.136;11.062;2022-07-06T14:38:18;33.70;26.50
7388;DHT22;3735;50.136;11.062;2022-07-06T14:40:46;34.10;26.00
7388;DHT22;3735;50.136;11.062;2022-07-06T14:43:14;33.50;25.40
7388;DHT22;3735;50.136;11.062;2022-07-06T14:45:43;33.20;26.20
7388;DHT22;3735;50.136;11.062;2022-07-06T14:48:11;32.90;26.50
7388;DHT22;3735;50.136;11.062;2022-07-06T14:50:37;33.00;27.40
7388;DHT22;3735;50.136;11.062;2022-07-06T14:53:03;32.70;26.90
7388;DHT22;3735;50.136;11.062;2022-07-06T14:55:29;33.00;26.70
7388;DHT22;3735;50.136;11.062;2022-07-06T14:57:56;33.40;25.80
7388;DHT22;3735;50.136;11.062;2022-07-06T15:00:21;34.00;26.80
7388;DHT22;3735;50.136;11.062;2022-07-06T15:02:47;34.30;24.50
7388;DHT22;3735;50.136;11.062;2022-07-06T15:05:14;33.30;24.70
7388;DHT22;3735;50.136;11.062;2022-07-06T15:07:40;33.00;25.70
7388;DHT22;3735;50.136;11.062;2022-07-06T15:10:06;32.40;27.40
7388;DHT22;3735;50.136;11.062;2022-07-06T15:12:33;32.30;26.90
7388;DHT22;3735;50.136;11.062;2022-07-06T15:14:59;32.40;27.10
7388;DHT22;3735;50.136;11.062;2022-07-06T15:17:25;32.30;27.50
7388;DHT22;3735;50.136;11.062;2022-07-06T15:19:51;32.60;26.50
7388;DHT22;3735;50.136;11.062;2022-07-06T15:22:16;32.70;27.30
7388;DHT22;3735;50.136;11.062;2022-07-06T15:24:42;32.60;27.20
7388;DHT22;3735;50.136;11.062;2022-07-06T15:27:08;32.80;26.70
7388;DHT22;3735;50.136;11.062;2022-07-06T15:29:34;33.20;26.60
7388;DHT22;3735;50.136;11.062;2022-07-06T15:32:00;33.50;26.30
7388;DHT22;3735;50.136;11.062;2022-07-06T15:34:26;33.50;26.50
7388;DHT22;3735;50.136;11.062;2022-07-06T15:36:52;33.50;26.00
7388;DHT22;3735;50.136;11.062;2022-07-06T15:39:19;33.20;25.10
7388;DHT22;3735;50.136;11.062;2022-07-06T15:41:44;32.90;25.60
7388;DHT22;3735;50.136;11.062;2022-07-06T15:44:10;32.40;25.90
7388;DHT22;3735;50.136;11.062;2022-07-06T15:46:36;32.30;26.40
7388;DHT22;3735;50.136;11.062;2022-07-06T15:49:03;32.40;26.80
7388;DHT22;3735;50.136;11.062;2022-07-06T15:51:29;32.50;27.30
7388;DHT22;3735;50.136;11.062;2022-07-06T15:53:55;32.20;26.40
7388;DHT22;3735;50.136;11.062;2022-07-06T15:56:21;31.50;26.40
7388;DHT22;3735;50.136;11.062;2022-07-06T15:58:47;30.60;27.70
7388;DHT22;3735;50.136;11.062;2022-07-06T16:01:13;29.40;28.90
7388;DHT22;3735;50.136;11.062;2022-07-06T16:03:39;28.60;30.20
7388;DHT22;3735;50.136;11.062;2022-07-06T16:06:06;27.90;32.30
7388;DHT22;3735;50.136;11.062;2022-07-06T16:08:33;27.20;33.10